createdAt,value
2019-04-03T00:00:35.843Z,25.45
2019-04-03T00:03:04.872Z,26.07
2019-04-03T00:05:35.021Z,23.30
2019-04-03T00:08:06.014Z,23.87
2019-04-03T00:10:33.514Z,22.25
2019-04-03T00:13:01.645Z,22.05
2019-04-03T00:15:30.742Z,22.50
2019-04-03T00:17:58.634Z,24.02
2019-04-03T00:20:27.416Z,23.45
2019-04-03T00:22:56.654Z,24.02
2019-04-03T00:25:24.581Z,22.55
2019-04-03T00:27:53.913Z,24.37
2019-04-03T00:30:25.110Z,22.90
2019-04-03T00:32:54.069Z,24.55
2019-04-03T00:35:25.430Z,23.45
2019-04-03T00:37:53.897Z,23.67
2019-04-03T00:40:22.710Z,24.12
2019-04-03T00:42:54.086Z,23.50
2019-04-03T00:45:24.521Z,20.57
2019-04-03T00:47:52.415Z,23.47
2019-04-03T00:50:26.908Z,22.77
2019-04-03T00:52:57.435Z,24.12
2019-04-03T00:55:26.682Z,23.45
2019-04-03T00:57:57.299Z,21.65
2019-04-03T01:00:27.207Z,21.27
2019-04-03T01:02:58.890Z,23.60
2019-04-03T01:05:29.738Z,23.18
2019-04-03T01:07:59.227Z,22.65
2019-04-03T01:10:27.857Z,22.98
2019-04-03T01:13:00.018Z,24.40
2019-04-03T01:15:28.190Z,25.05
2019-04-03T01:17:56.165Z,26.90
2019-04-03T01:20:27.316Z,23.07
2019-04-03T01:22:55.595Z,26.42
2019-04-03T01:25:25.450Z,25.82
2019-04-03T01:28:04.133Z,23.10
2019-04-03T01:30:30.681Z,22.05
2019-04-03T01:33:00.585Z,23.60
2019-04-03T01:35:28.525Z,24.40
2019-04-03T01:37:56.699Z,26.87
2019-04-03T01:40:24.579Z,22.98
2019-04-03T01:42:53.567Z,22.87
2019-04-03T01:45:21.760Z,26.40
2019-04-03T01:47:52.595Z,26.27
2019-04-03T01:50:20.586Z,24.57
2019-04-03T01:52:55.029Z,23.92
2019-04-03T01:55:22.937Z,24.82
2019-04-03T01:57:53.028Z,26.57
2019-04-03T02:00:21.021Z,21.45
2019-04-03T02:02:49.045Z,27.87
2019-04-03T02:05:19.026Z,21.73
2019-04-03T02:07:46.998Z,25.85
2019-04-03T02:10:19.028Z,26.30
2019-04-03T02:12:50.478Z,28.65
2019-04-03T02:15:18.084Z,27.55
2019-04-03T02:17:45.999Z,26.57
2019-04-03T02:20:15.451Z,28.00
2019-04-03T02:22:47.449Z,25.92
2019-04-03T02:25:15.373Z,28.83
2019-04-03T02:27:45.921Z,28.67
2019-04-03T02:30:23.654Z,24.82
2019-04-03T02:32:55.080Z,27.42
2019-04-03T02:35:24.786Z,26.75
2019-04-03T02:37:57.095Z,26.77
2019-04-03T02:40:25.149Z,27.55
2019-04-03T02:42:55.176Z,25.77
2019-04-03T02:45:24.252Z,29.40
2019-04-03T02:47:52.436Z,28.10
2019-04-03T02:50:30.648Z,28.85
2019-04-03T02:52:59.219Z,30.10
2019-04-03T02:55:28.088Z,30.77
2019-04-03T02:57:56.332Z,30.43
2019-04-03T03:00:24.299Z,27.73
2019-04-03T03:02:55.406Z,29.20
2019-04-03T03:05:26.902Z,27.58
2019-04-03T03:07:53.201Z,27.37
2019-04-03T03:10:22.390Z,28.77
2019-04-03T03:12:51.223Z,26.17
2019-04-03T03:15:20.248Z,24.50
2019-04-03T03:17:54.531Z,25.30
2019-04-03T03:20:26.140Z,24.20
2019-04-03T03:22:55.115Z,25.72
2019-04-03T03:25:23.827Z,26.33
2019-04-03T03:27:52.203Z,27.22
2019-04-03T03:30:36.042Z,24.75
2019-04-03T03:32:50.625Z,27.87
2019-04-03T03:35:28.631Z,30.05
2019-04-03T03:37:51.434Z,28.47
2019-04-03T03:40:19.401Z,30.65
2019-04-03T03:42:48.327Z,28.45
2019-04-03T03:45:21.384Z,31.77
2019-04-03T03:47:49.967Z,30.75
2019-04-03T03:50:22.387Z,27.85
2019-04-03T03:52:49.835Z,31.15
2019-04-03T03:55:18.423Z,32.15
2019-04-03T03:57:48.021Z,32.85
2019-04-03T04:00:18.271Z,35.17
2019-04-03T04:02:46.303Z,32.58
2019-04-03T04:05:14.625Z,36.15
2019-04-03T04:07:45.353Z,34.27
2019-04-03T04:10:15.401Z,35.55
2019-04-03T04:12:43.484Z,34.00
2019-04-03T04:15:14.485Z,35.23
2019-04-03T04:17:42.637Z,32.15
2019-04-03T04:20:11.073Z,34.67
2019-04-03T04:22:41.761Z,36.63
2019-04-03T04:25:10.094Z,33.10
2019-04-03T04:27:41.475Z,33.65
2019-04-03T04:30:12.863Z,37.30
2019-04-03T04:32:45.578Z,31.90
2019-04-03T04:35:19.095Z,32.03
2019-04-03T04:37:47.114Z,34.98
2019-04-03T04:40:16.655Z,30.72
2019-04-03T04:42:46.375Z,34.33
2019-04-03T04:45:14.312Z,32.05
2019-04-03T04:47:42.333Z,34.20
2019-04-03T04:50:10.328Z,31.12
2019-04-03T04:52:39.744Z,29.72
2019-04-03T04:55:08.288Z,34.15
2019-04-03T04:57:40.233Z,33.80
2019-04-03T05:00:09.358Z,33.35
2019-04-03T05:02:51.140Z,37.40
2019-04-03T05:05:20.631Z,33.50
2019-04-03T05:07:48.610Z,32.53
2019-04-03T05:10:17.906Z,35.48
2019-04-03T05:12:46.439Z,34.08
2019-04-03T05:15:14.408Z,33.65
2019-04-03T05:17:42.311Z,27.98
2019-04-03T05:20:10.291Z,25.62
2019-04-03T05:22:38.233Z,24.10
2019-04-03T05:25:06.196Z,27.62
2019-04-03T05:27:34.779Z,24.45
2019-04-03T05:30:05.282Z,25.55
2019-04-03T05:32:32.483Z,23.35
2019-04-03T05:35:00.378Z,28.55
2019-04-03T05:37:28.472Z,23.25
2019-04-03T05:39:56.614Z,24.37
2019-04-03T05:42:24.905Z,26.50
2019-04-03T05:44:52.763Z,25.55
2019-04-03T05:47:20.643Z,25.68
2019-04-03T05:49:50.769Z,28.62
2019-04-03T05:52:18.331Z,30.55
2019-04-03T05:54:46.520Z,26.60
2019-04-03T05:57:14.517Z,28.75
2019-04-03T05:59:44.129Z,29.20
2019-04-03T06:02:16.287Z,29.20
2019-04-03T06:04:42.746Z,27.70
2019-04-03T06:07:10.705Z,31.97
2019-04-03T06:09:38.800Z,26.62
2019-04-03T06:12:08.844Z,28.35
2019-04-03T06:14:36.549Z,28.90
2019-04-03T06:17:06.659Z,25.97
2019-04-03T06:19:35.436Z,30.55
2019-04-03T06:22:04.513Z,28.52
2019-04-03T06:24:32.482Z,28.73
2019-04-03T06:27:00.516Z,29.10
2019-04-03T06:29:28.724Z,27.70
2019-04-03T06:31:57.684Z,27.60
2019-04-03T06:34:26.295Z,28.38
2019-04-03T06:36:54.630Z,30.12
2019-04-03T06:39:24.021Z,26.90
2019-04-03T06:41:52.339Z,28.65
2019-04-03T06:44:22.629Z,29.20
2019-04-03T06:46:49.914Z,30.65
2019-04-03T06:49:17.826Z,28.62
2019-04-03T06:51:47.267Z,26.87
2019-04-03T06:54:15.652Z,26.87
2019-04-03T06:56:43.544Z,28.20
2019-04-03T06:59:11.566Z,27.55
2019-04-03T07:01:39.578Z,25.20
2019-04-03T07:04:07.419Z,27.13
2019-04-03T07:06:35.491Z,23.40
2019-04-03T07:09:05.511Z,27.50
2019-04-03T07:11:33.493Z,21.52
2019-04-03T07:14:02.595Z,24.25
2019-04-03T07:16:30.881Z,22.10
2019-04-03T07:18:58.754Z,24.23
2019-04-03T07:21:27.632Z,21.90
2019-04-03T07:23:55.814Z,22.70
2019-04-03T07:26:23.879Z,23.45
2019-04-03T07:28:51.947Z,23.55
2019-04-03T07:31:19.821Z,22.40
2019-04-03T07:33:48.025Z,21.20
2019-04-03T07:36:15.946Z,23.18
2019-04-03T07:38:43.854Z,20.05
2019-04-03T07:41:11.963Z,22.73
2019-04-03T07:43:40.268Z,22.80
2019-04-03T07:46:08.391Z,22.05
2019-04-03T07:48:37.985Z,20.37
2019-04-03T07:51:06.321Z,21.07
2019-04-03T07:53:34.514Z,20.40
2019-04-03T07:56:02.434Z,21.60
2019-04-03T07:58:31.621Z,21.37
2019-04-03T08:00:59.905Z,22.95
2019-04-03T08:03:27.858Z,21.45
2019-04-03T08:05:56.730Z,21.42
2019-04-03T08:08:24.982Z,21.57
2019-04-03T08:10:52.916Z,20.70
2019-04-03T08:13:21.097Z,19.95
2019-04-03T08:15:49.129Z,21.57
2019-04-03T08:18:16.963Z,20.85
2019-04-03T08:20:45.116Z,22.75
2019-04-03T08:23:13.245Z,25.05
2019-04-03T08:25:42.975Z,21.27
2019-04-03T08:28:11.062Z,22.67
2019-04-03T08:30:40.180Z,20.32
2019-04-03T08:33:15.909Z,22.98
2019-04-03T08:35:38.440Z,24.05
2019-04-03T08:38:06.335Z,21.93
2019-04-03T08:40:34.476Z,21.20
2019-04-03T08:43:02.444Z,21.33
2019-04-03T08:45:30.360Z,22.10
2019-04-03T08:47:58.343Z,24.47
2019-04-03T08:50:26.787Z,22.45
2019-04-03T08:52:55.824Z,24.20
2019-04-03T08:55:23.867Z,22.87
2019-04-03T08:57:52.510Z,22.90
2019-04-03T09:00:21.153Z,22.07
2019-04-03T09:02:49.123Z,22.93
2019-04-03T09:05:19.701Z,22.52
2019-04-03T09:07:46.784Z,20.48
2019-04-03T09:10:14.993Z,24.07
2019-04-03T09:12:43.193Z,23.25
2019-04-03T09:15:11.397Z,21.40
2019-04-03T09:17:39.606Z,20.20
2019-04-03T09:20:07.719Z,23.57
2019-04-03T09:22:35.590Z,24.60
2019-04-03T09:25:03.542Z,23.45
2019-04-03T09:27:31.558Z,24.27
2019-04-03T09:29:59.479Z,23.10
2019-04-03T09:32:27.360Z,21.35
2019-04-03T09:34:55.235Z,22.17
2019-04-03T09:37:23.177Z,25.25
2019-04-03T09:39:51.073Z,24.37
2019-04-03T09:42:19.612Z,23.32
2019-04-03T09:44:48.497Z,24.67
2019-04-03T09:47:16.354Z,24.65
2019-04-03T09:49:44.679Z,24.57
2019-04-03T09:52:12.815Z,23.47
2019-04-03T09:54:40.773Z,24.87
2019-04-03T09:57:08.706Z,25.62
2019-04-03T09:59:37.812Z,24.55
2019-04-03T10:02:06.230Z,24.35
2019-04-03T10:04:34.313Z,23.30
2019-04-03T10:07:02.741Z,25.10
2019-04-03T10:09:30.929Z,26.73
2019-04-03T10:11:58.966Z,30.90
2019-04-03T10:14:28.124Z,24.67
2019-04-03T10:16:56.606Z,26.40
2019-04-03T10:19:24.562Z,23.77
2019-04-03T10:21:53.551Z,22.93
2019-04-03T10:24:21.588Z,26.60
2019-04-03T10:26:49.544Z,23.32
2019-04-03T10:29:19.088Z,25.85
2019-04-03T10:31:47.304Z,24.65
2019-04-03T10:34:15.229Z,25.60
2019-04-03T10:36:43.756Z,25.00
2019-04-03T10:39:13.815Z,25.10
2019-04-03T10:41:41.750Z,25.77
2019-04-03T10:44:10.256Z,26.90
2019-04-03T10:46:38.326Z,25.65
2019-04-03T10:49:06.211Z,29.05
2019-04-03T10:51:34.125Z,25.75
2019-04-03T10:54:02.035Z,23.02
2019-04-03T10:56:31.209Z,22.70
2019-04-03T10:59:09.504Z,23.85
2019-04-03T11:01:29.889Z,25.80
2019-04-03T11:03:58.092Z,22.27
2019-04-03T11:06:25.958Z,21.50
2019-04-03T11:08:53.836Z,24.00
2019-04-03T11:11:21.758Z,25.72
2019-04-03T11:13:49.751Z,25.20
2019-04-03T11:16:18.109Z,34.50
2019-04-03T11:18:57.736Z,32.17
2019-04-03T11:21:15.732Z,29.25
2019-04-03T11:23:45.331Z,28.80
2019-04-03T11:26:13.254Z,27.87
2019-04-03T11:28:41.691Z,24.95
2019-04-03T11:31:09.740Z,32.28
2019-04-03T11:33:37.812Z,28.83
2019-04-03T11:36:05.718Z,27.65
2019-04-03T11:38:33.607Z,26.10
2019-04-03T11:41:12.036Z,25.85
2019-04-03T11:43:32.351Z,28.83
2019-04-03T11:46:00.440Z,29.10
2019-04-03T11:48:30.635Z,25.12
2019-04-03T11:50:58.597Z,27.15
2019-04-03T11:53:26.497Z,27.30
2019-04-03T11:55:54.409Z,26.52
2019-04-03T11:58:22.602Z,27.22
2019-04-03T12:00:52.185Z,33.85
2019-04-03T12:03:20.229Z,25.25
2019-04-03T12:05:48.313Z,28.25
2019-04-03T12:08:16.271Z,30.15
2019-04-03T12:10:44.142Z,29.25
2019-04-03T12:13:14.012Z,29.90
2019-04-03T12:15:41.752Z,26.05
2019-04-03T12:18:09.618Z,27.02
2019-04-03T12:20:41.244Z,26.70
2019-04-03T12:23:07.183Z,23.95
2019-04-03T12:25:38.225Z,24.12
2019-04-03T12:28:06.779Z,19.60
2019-04-03T12:30:34.367Z,17.23
2019-04-03T12:33:02.248Z,19.67
2019-04-03T12:35:30.093Z,16.70
2019-04-03T12:37:57.997Z,16.73
2019-04-03T12:40:25.929Z,18.40
2019-04-03T12:42:54.294Z,17.35
2019-04-03T12:45:22.722Z,18.45
2019-04-03T12:47:51.857Z,19.10
2019-04-03T12:50:19.713Z,20.00
2019-04-03T12:52:47.628Z,21.45
2019-04-03T12:55:15.557Z,21.50
2019-04-03T12:57:43.511Z,19.60
2019-04-03T13:00:12.943Z,20.12
2019-04-03T13:02:41.633Z,18.65
2019-04-03T13:05:09.880Z,24.15
2019-04-03T13:07:37.928Z,19.62
2019-04-03T13:10:07.367Z,18.42
2019-04-03T13:12:35.848Z,19.15
2019-04-03T13:15:05.782Z,18.95
2019-04-03T13:17:33.854Z,18.27
2019-04-03T13:20:05.137Z,19.98
2019-04-03T13:22:31.427Z,22.07
2019-04-03T13:24:59.668Z,18.50
2019-04-03T13:27:30.784Z,21.55
2019-04-03T13:29:57.173Z,21.93
2019-04-03T13:32:25.755Z,19.82
2019-04-03T13:34:53.977Z,20.25
2019-04-03T13:37:23.268Z,18.32
2019-04-03T13:39:51.970Z,19.32
2019-04-03T13:42:21.087Z,18.62
2019-04-03T13:44:49.050Z,20.12
2019-04-03T13:47:18.795Z,19.98
2019-04-03T13:49:49.429Z,18.82
2019-04-03T13:52:16.291Z,18.00
2019-04-03T13:54:45.474Z,20.23
2019-04-03T13:57:14.783Z,17.67
2019-04-03T13:59:46.084Z,16.48
2019-04-03T14:02:15.081Z,19.15
2019-04-03T14:04:43.572Z,18.20
2019-04-03T14:07:11.493Z,18.80
2019-04-03T14:09:39.362Z,18.45
2019-04-03T14:12:07.691Z,18.48
2019-04-03T14:14:36.022Z,21.35
2019-04-03T14:17:06.117Z,19.12
2019-04-03T14:19:43.209Z,21.60
2019-04-03T14:22:04.039Z,18.15
2019-04-03T14:24:41.338Z,20.50
2019-04-03T14:27:01.756Z,19.52
2019-04-03T14:29:30.215Z,17.90
2019-04-03T14:31:58.226Z,17.35
2019-04-03T14:34:29.249Z,17.75
2019-04-03T14:36:56.028Z,16.40
2019-04-03T14:39:23.965Z,17.75
2019-04-03T14:41:54.333Z,17.32
2019-04-03T14:44:21.820Z,17.20
2019-04-03T14:46:50.719Z,15.28
2019-04-03T14:49:19.196Z,16.95
2019-04-03T14:51:47.160Z,17.00
2019-04-03T14:54:15.194Z,17.92
2019-04-03T14:56:43.418Z,18.57
2019-04-03T14:59:13.753Z,16.73
2019-04-03T15:01:40.989Z,17.15
2019-04-03T15:04:09.033Z,18.48
2019-04-03T15:06:37.030Z,19.17
2019-04-03T15:09:08.183Z,17.12
2019-04-03T15:11:36.414Z,17.48
2019-04-03T15:14:04.476Z,18.35
2019-04-03T15:16:33.248Z,17.20
2019-04-03T15:19:02.105Z,18.42
2019-04-03T15:21:30.673Z,18.48
2019-04-03T15:23:58.814Z,18.42
2019-04-03T15:26:27.239Z,18.23
2019-04-03T15:28:55.140Z,22.00
2019-04-03T15:31:24.038Z,17.37
2019-04-03T15:33:53.146Z,18.27
2019-04-03T15:36:22.143Z,16.05
2019-04-03T15:38:50.108Z,19.17
2019-04-03T15:41:18.354Z,18.25
2019-04-03T15:43:47.318Z,17.73
2019-04-03T15:46:17.387Z,17.80
2019-04-03T15:48:45.500Z,18.57
2019-04-03T15:51:13.756Z,16.90
2019-04-03T15:53:41.720Z,18.85
2019-04-03T15:56:13.003Z,18.17
2019-04-03T15:58:39.630Z,17.80
2019-04-03T16:01:08.763Z,18.27
2019-04-03T16:03:37.648Z,17.87
2019-04-03T16:06:05.683Z,17.05
2019-04-03T16:08:33.597Z,17.60
2019-04-03T16:11:01.597Z,17.55
2019-04-03T16:13:29.757Z,17.00
2019-04-03T16:16:00.762Z,17.20
2019-04-03T16:18:27.503Z,17.50
2019-04-03T16:20:55.439Z,22.70
2019-04-03T16:23:23.392Z,20.62
2019-04-03T16:25:51.287Z,18.40
2019-04-03T16:28:19.536Z,17.75
2019-04-03T16:30:51.753Z,20.30
2019-04-03T16:33:21.976Z,17.65
2019-04-03T16:35:46.806Z,17.62
2019-04-03T16:38:15.081Z,17.35
2019-04-03T16:40:43.151Z,17.95
2019-04-03T16:43:11.552Z,17.82
2019-04-03T16:45:39.697Z,18.10
2019-04-03T16:48:07.689Z,17.48
2019-04-03T16:50:35.988Z,21.85
2019-04-03T16:53:07.457Z,24.12
2019-04-03T16:55:36.210Z,22.00
2019-04-03T16:58:04.478Z,18.25
2019-04-03T17:00:32.542Z,17.45
2019-04-03T17:03:00.507Z,17.77
2019-04-03T17:05:28.859Z,19.23
2019-04-03T17:07:57.169Z,16.85
2019-04-03T17:10:25.643Z,19.30
2019-04-03T17:12:54.924Z,15.85
2019-04-03T17:15:24.617Z,16.23
2019-04-03T17:17:52.667Z,18.20
2019-04-03T17:20:22.510Z,18.92
2019-04-03T17:22:50.286Z,16.80
2019-04-03T17:25:18.573Z,17.05
2019-04-03T17:27:55.129Z,16.55
2019-04-03T17:30:18.425Z,16.10
2019-04-03T17:32:48.299Z,16.93
2019-04-03T17:35:16.483Z,16.30
2019-04-03T17:37:44.751Z,17.52
2019-04-03T17:40:13.230Z,16.87
2019-04-03T17:42:41.264Z,15.88
2019-04-03T17:45:09.497Z,16.40
2019-04-03T17:47:37.459Z,18.73
2019-04-03T17:50:06.287Z,16.50
2019-04-03T17:52:36.048Z,17.60
2019-04-03T17:55:05.660Z,21.10
2019-04-03T17:57:33.593Z,20.30
2019-04-03T18:00:01.503Z,18.75
2019-04-03T18:02:29.962Z,17.80
2019-04-03T18:04:58.115Z,19.15
2019-04-03T18:07:28.253Z,21.15
2019-04-03T18:09:55.882Z,19.92
2019-04-03T18:12:25.678Z,19.27
2019-04-03T18:14:55.712Z,21.15
2019-04-03T18:17:24.152Z,21.05
2019-04-03T18:19:52.095Z,21.60
2019-04-03T18:22:20.190Z,19.62
2019-04-03T18:24:48.793Z,21.82
2019-04-03T18:27:16.875Z,17.57
2019-04-03T18:29:45.030Z,19.30
2019-04-03T18:32:15.407Z,20.70
2019-04-03T18:34:44.018Z,22.85
2019-04-03T18:37:12.358Z,21.82
2019-04-03T18:39:41.058Z,19.17
2019-04-03T18:42:09.194Z,24.23
2019-04-03T18:44:37.272Z,17.65
2019-04-03T18:47:06.777Z,20.80
2019-04-03T18:49:34.895Z,20.70
2019-04-03T18:52:02.875Z,19.25
2019-04-03T18:54:30.820Z,21.23
2019-04-03T18:56:58.687Z,22.48
2019-04-03T18:59:28.276Z,21.48
2019-04-03T19:01:56.378Z,23.73
2019-04-03T19:04:26.428Z,24.20
2019-04-03T19:06:55.841Z,22.70
2019-04-03T19:09:23.716Z,20.50
2019-04-03T19:11:51.950Z,17.20
2019-04-03T19:14:26.938Z,16.80
2019-04-03T19:16:54.154Z,16.55
2019-04-03T19:19:23.704Z,19.10
2019-04-03T19:21:52.772Z,22.85
2019-04-03T19:24:20.837Z,20.65
2019-04-03T19:26:48.748Z,17.75
2019-04-03T19:29:16.682Z,18.42
2019-04-03T19:31:44.628Z,16.57
2019-04-03T19:34:19.510Z,15.95
2019-04-03T19:36:43.566Z,17.17
2019-04-03T19:39:11.410Z,18.60
2019-04-03T19:41:40.966Z,15.85
2019-04-03T19:44:10.251Z,18.00
2019-04-03T19:46:38.266Z,20.00
2019-04-03T19:49:06.350Z,16.42
2019-04-03T19:51:37.189Z,17.62
2019-04-03T19:54:03.921Z,19.52
2019-04-03T19:56:34.220Z,18.92
2019-04-03T19:59:04.720Z,16.75
2019-04-03T20:01:31.749Z,17.42
2019-04-03T20:03:59.672Z,21.30
2019-04-03T20:06:27.560Z,17.42
2019-04-03T20:08:55.574Z,19.45
2019-04-03T20:11:23.522Z,17.57
2019-04-03T20:13:51.511Z,18.27
2019-04-03T20:16:19.532Z,16.55
2019-04-03T20:18:47.577Z,17.40
2019-04-03T20:21:15.542Z,18.48
2019-04-03T20:23:43.610Z,16.95
2019-04-03T20:26:12.559Z,17.82
2019-04-03T20:28:40.595Z,17.50
2019-04-03T20:31:08.539Z,17.30
2019-04-03T20:33:38.975Z,17.62
2019-04-03T20:36:06.964Z,16.20
2019-04-03T20:38:34.936Z,15.98
2019-04-03T20:41:03.908Z,18.50
2019-04-03T20:43:32.342Z,19.00
2019-04-03T20:46:00.256Z,18.92
2019-04-03T20:48:28.743Z,15.53
2019-04-03T20:50:56.670Z,15.10
2019-04-03T20:53:24.675Z,15.03
2019-04-03T20:55:54.201Z,14.90
2019-04-03T20:58:23.980Z,16.48
2019-04-03T21:01:05.791Z,17.15
2019-04-03T21:03:21.595Z,16.23
2019-04-03T21:05:49.993Z,16.00
2019-04-03T21:08:17.914Z,16.30
2019-04-03T21:10:45.863Z,17.32
2019-04-03T21:13:15.312Z,17.27
2019-04-03T21:15:45.362Z,15.50
2019-04-03T21:18:13.372Z,15.88
2019-04-03T21:20:41.350Z,16.35
2019-04-03T21:23:10.553Z,16.32
2019-04-03T21:25:40.726Z,15.63
2019-04-03T21:28:11.000Z,15.43
2019-04-03T21:30:39.987Z,16.62
2019-04-03T21:33:07.854Z,16.35
2019-04-03T21:35:37.454Z,15.48
2019-04-03T21:38:05.779Z,15.65
2019-04-03T21:40:33.716Z,15.05
2019-04-03T21:43:01.613Z,16.10
2019-04-03T21:45:29.527Z,15.90
2019-04-03T21:47:57.529Z,15.10
2019-04-03T21:50:27.506Z,18.95
2019-04-03T21:52:55.510Z,15.75
2019-04-03T21:55:24.799Z,16.65
2019-04-03T21:57:52.770Z,20.30
2019-04-03T22:00:36.311Z,16.55
2019-04-03T22:03:06.722Z,16.57
2019-04-03T22:05:33.893Z,16.45
2019-04-03T22:08:01.994Z,16.02
2019-04-03T22:10:32.796Z,15.93
2019-04-03T22:12:59.634Z,18.57
2019-04-03T22:15:27.699Z,16.23
2019-04-03T22:17:56.923Z,15.83
2019-04-03T22:20:25.189Z,16.37
2019-04-03T22:22:53.086Z,16.40
2019-04-03T22:25:21.033Z,15.50
2019-04-03T22:27:49.824Z,16.07
2019-04-03T22:30:17.762Z,15.18
2019-04-03T22:32:45.689Z,16.05
2019-04-03T22:35:13.558Z,16.07
2019-04-03T22:37:41.665Z,17.30
2019-04-03T22:40:10.583Z,15.63
2019-04-03T22:42:40.981Z,15.60
2019-04-03T22:45:09.471Z,16.70
2019-04-03T22:47:37.370Z,16.70
2019-04-03T22:50:05.815Z,15.75
2019-04-03T22:52:33.858Z,16.45
2019-04-03T22:55:01.758Z,16.42
2019-04-03T22:57:29.767Z,15.48
2019-04-03T22:59:58.672Z,17.02
2019-04-03T23:02:29.870Z,17.10
2019-04-03T23:04:57.357Z,16.20
2019-04-03T23:07:25.221Z,15.85
2019-04-03T23:09:53.158Z,18.12
2019-04-03T23:12:21.055Z,15.50
2019-04-03T23:14:48.997Z,15.53
2019-04-03T23:17:16.903Z,15.98
2019-04-03T23:19:47.529Z,16.17
2019-04-03T23:22:17.702Z,17.90
2019-04-03T23:24:46.091Z,16.50
2019-04-03T23:27:15.205Z,15.83
2019-04-03T23:29:43.292Z,16.62
2019-04-03T23:32:15.256Z,15.45
2019-04-03T23:34:42.840Z,16.57
2019-04-03T23:37:11.520Z,16.65
2019-04-03T23:39:39.695Z,15.95
2019-04-03T23:42:08.844Z,15.40
2019-04-03T23:44:37.312Z,15.32
2019-04-03T23:47:08.448Z,15.93
2019-04-03T23:49:37.229Z,18.07
2019-04-03T23:52:05.150Z,15.78
2019-04-03T23:54:33.942Z,15.85
2019-04-03T23:57:03.440Z,15.70
2019-04-03T23:59:32.534Z,16.15
